Time;durP1;ratioP1;P1;durP2;ratioP2;P2;SDS_P1;SDS_P2;PMS_P1;PMS_P2;Temp;Humidity;BMP_temperature;BMP_pressure;BME280_temperature;BME280_humidity;BME280_pressure;Samples;Min_cycle;Max_cycle;Signal;HPM_P1;HPM_P2
2020/12/28 00:00:52;;;;;;;7.38;2.00;;;;;;;;;;5013245;28;20042;-61
2020/12/28 00:03:19;;;;;;;7.75;3.20;;;;;;;;;;4989363;28;20050;-60
2020/12/28 00:05:47;;;;;;;6.38;2.97;;;;;;;;;;4991954;28;20030;-60
2020/12/28 00:08:13;;;;;;;5.72;2.00;;;;;;;;;;5013718;28;20026;-61
2020/12/28 00:10:39;;;;;;;3.15;1.73;;;;;;;;;;4989645;28;20054;-61
2020/12/28 00:13:05;;;;;;;4.05;1.98;;;;;;;;;;4987191;28;20108;-61
2020/12/28 00:15:32;;;;;;;4.15;2.05;;;;;;;;;;4983498;28;20074;-60
2020/12/28 00:17:59;;;;;;;4.03;2.00;;;;;;;;;;4985690;28;20058;-60
2020/12/28 00:20:28;;;;;;;5.07;2.03;;;;;;;;;;4982218;28;20038;-60
2020/12/28 00:22:54;;;;;;;3.92;2.00;;;;;;;;;;5003610;28;20104;-60
2020/12/28 00:25:21;;;;;;;3.85;1.92;;;;;;;;;;4986079;28;20045;-60
2020/12/28 00:27:47;;;;;;;5.32;2.30;;;;;;;;;;5005392;28;20046;-60
2020/12/28 00:30:13;;;;;;;3.40;1.88;;;;;;;;;;5020632;28;20074;-61
2020/12/28 00:32:39;;;;;;;4.20;2.08;;;;;;;;;;4986485;28;20030;-61
2020/12/28 00:35:06;;;;;;;6.25;2.22;;;;;;;;;;5002120;28;20153;-60
2020/12/28 00:37:33;;;;;;;6.43;2.50;;;;;;;;;;5014824;28;20041;-61
2020/12/28 00:39:59;;;;;;;6.78;2.63;;;;;;;;;;5024896;28;20050;-60
2020/12/28 00:42:25;;;;;;;7.47;2.28;;;;;;;;;;5016312;28;20046;-60
2020/12/28 00:44:51;;;;;;;9.52;2.80;;;;;;;;;;4987530;28;20038;-64
2020/12/28 00:47:17;;;;;;;7.55;3.63;;;;;;;;;;4982469;28;20046;-61
2020/12/28 00:49:43;;;;;;;8.80;3.10;;;;;;;;;;4984307;28;20084;-61
2020/12/28 00:52:09;;;;;;;5.15;2.50;;;;;;;;;;4992331;28;20040;-60
2020/12/28 00:54:37;;;;;;;4.80;2.30;;;;;;;;;;5021714;28;20030;-61
2020/12/28 00:57:03;;;;;;;4.97;2.25;;;;;;;;;;5010850;28;20038;-61
2020/12/28 00:59:29;;;;;;;4.68;2.15;;;;;;;;;;4985850;28;20052;-61
2020/12/28 01:01:55;;;;;;;6.00;2.88;;;;;;;;;;4984472;28;20052;-61
2020/12/28 01:04:21;;;;;;;7.43;3.03;;;;;;;;;;5001009;28;20046;-61
2020/12/28 01:06:47;;;;;;;6.20;2.97;;;;;;;;;;4999234;28;20037;-61
2020/12/28 01:09:15;;;;;;;6.47;3.35;;;;;;;;;;5022231;28;20053;-60
2020/12/28 01:11:42;;;;;;;7.97;3.38;;;;;;;;;;5025694;28;20041;-61
2020/12/28 01:14:10;;;;;;;6.78;3.03;;;;;;;;;;5001453;28;20062;-61
2020/12/28 01:16:37;;;;;;;6.78;2.88;;;;;;;;;;5007127;28;20054;-61
2020/12/28 01:19:03;;;;;;;6.50;2.80;;;;;;;;;;5000762;28;20046;-60
2020/12/28 01:21:29;;;;;;;5.53;2.83;;;;;;;;;;5006277;28;20042;-61
2020/12/28 01:23:56;;;;;;;7.20;3.35;;;;;;;;;;5000864;28;20065;-60
2020/12/28 01:26:23;;;;;;;8.43;3.33;;;;;;;;;;5003870;28;20049;-60
2020/12/28 01:28:50;;;;;;;6.13;3.03;;;;;;;;;;5013245;28;20053;-60
2020/12/28 01:31:16;;;;;;;8.50;3.15;;;;;;;;;;5024155;28;20033;-60
2020/12/28 01:33:42;;;;;;;6.22;2.83;;;;;;;;;;5011955;28;20038;-61
2020/12/28 01:36:09;;;;;;;8.65;3.78;;;;;;;;;;5006012;28;20045;-62
2020/12/28 01:38:35;;;;;;;10.30;3.88;;;;;;;;;;5001214;28;20054;-61
2020/12/28 01:41:01;;;;;;;9.18;3.38;;;;;;;;;;5004948;28;20045;-61
2020/12/28 01:43:27;;;;;;;8.95;4.35;;;;;;;;;;5019067;28;20037;-60
2020/12/28 01:45:54;;;;;;;8.93;4.10;;;;;;;;;;5011048;28;20049;-60
2020/12/28 01:48:20;;;;;;;8.00;3.70;;;;;;;;;;5001179;28;20050;-61
2020/12/28 01:50:47;;;;;;;7.25;3.70;;;;;;;;;;5004367;28;20045;-60
2020/12/28 01:53:16;;;;;;;7.00;3.15;;;;;;;;;;5005698;28;20092;-61
2020/12/28 01:55:43;;;;;;;6.13;2.78;;;;;;;;;;5019981;28;20096;-60
2020/12/28 01:58:09;;;;;;;9.23;3.35;;;;;;;;;;5038848;28;20105;-61
2020/12/28 02:00:35;;;;;;;8.63;3.13;;;;;;;;;;5020619;28;20038;-60
2020/12/28 02:03:02;;;;;;;6.05;2.92;;;;;;;;;;5020243;28;20043;-60
2020/12/28 02:05:29;;;;;;;10.30;3.03;;;;;;;;;;5007799;28;20049;-61
2020/12/28 02:07:55;;;;;;;7.05;3.50;;;;;;;;;;5005451;28;20065;-61
2020/12/28 02:10:21;;;;;;;5.47;2.72;;;;;;;;;;5013755;28;20053;-60
2020/12/28 02:12:47;;;;;;;5.80;2.92;;;;;;;;;;5007240;28;20054;-60
2020/12/28 02:15:14;;;;;;;5.07;2.72;;;;;;;;;;5001047;28;20060;-61
2020/12/28 02:17:40;;;;;;;7.63;2.97;;;;;;;;;;5003992;28;20030;-60
2020/12/28 02:20:07;;;;;;;5.45;2.90;;;;;;;;;;5002482;28;20038;-61
2020/12/28 02:22:33;;;;;;;7.03;2.88;;;;;;;;;;5002955;28;20114;-60
2020/12/28 02:24:59;;;;;;;5.60;2.53;;;;;;;;;;5001215;28;20161;-60
2020/12/28 02:27:25;;;;;;;5.43;2.25;;;;;;;;;;5003361;28;20037;-60
2020/12/28 02:29:51;;;;;;;3.72;1.98;;;;;;;;;;5001105;28;20042;-60
2020/12/28 02:32:17;;;;;;;4.60;2.65;;;;;;;;;;5003995;28;20060;-61
2020/12/28 02:34:44;;;;;;;6.30;2.30;;;;;;;;;;5002907;28;20038;-61
2020/12/28 02:37:10;;;;;;;4.93;1.98;;;;;;;;;;5000838;28;20054;-61
2020/12/28 02:39:37;;;;;;;4.50;2.45;;;;;;;;;;5004096;28;20044;-61
2020/12/28 02:42:03;;;;;;;4.93;2.47;;;;;;;;;;4998384;28;20110;-60
2020/12/28 02:44:30;;;;;;;5.57;2.40;;;;;;;;;;5003131;28;20157;-60
2020/12/28 02:46:57;;;;;;;4.55;2.30;;;;;;;;;;5000194;28;20052;-60
2020/12/28 02:49:24;;;;;;;5.85;2.70;;;;;;;;;;5004371;28;20124;-60
2020/12/28 02:51:50;;;;;;;7.97;3.08;;;;;;;;;;4999741;28;20046;-61
2020/12/28 02:54:16;;;;;;;8.13;3.45;;;;;;;;;;5001684;28;20042;-60
2020/12/28 02:56:43;;;;;;;7.95;3.92;;;;;;;;;;5007380;28;20049;-61
2020/12/28 02:59:09;;;;;;;8.25;3.50;;;;;;;;;;5022128;28;20048;-60
2020/12/28 03:01:37;;;;;;;6.07;3.10;;;;;;;;;;5013266;28;20041;-60
2020/12/28 03:04:03;;;;;;;7.30;3.28;;;;;;;;;;5021406;28;20049;-60
2020/12/28 03:06:29;;;;;;;7.53;3.55;;;;;;;;;;5020542;28;20065;-60
2020/12/28 03:08:55;;;;;;;8.80;3.72;;;;;;;;;;5025376;28;20071;-61
2020/12/28 03:11:21;;;;;;;9.70;4.47;;;;;;;;;;5042737;28;20091;-60
2020/12/28 03:13:48;;;;;;;10.18;3.75;;;;;;;;;;5021231;28;20057;-60
2020/12/28 03:16:14;;;;;;;6.72;3.53;;;;;;;;;;5022639;28;20053;-60
2020/12/28 03:18:40;;;;;;;9.82;3.25;;;;;;;;;;5018966;28;20042;-60
2020/12/28 03:21:06;;;;;;;7.43;3.72;;;;;;;;;;5006792;28;20060;-60
2020/12/28 03:23:32;;;;;;;9.23;2.97;;;;;;;;;;5021121;28;20056;-60
2020/12/28 03:25:58;;;;;;;10.45;3.28;;;;;;;;;;5020858;28;20053;-60
2020/12/28 03:28:30;;;;;;;6.70;2.72;;;;;;;;;;5014677;28;20060;-61
2020/12/28 03:30:57;;;;;;;7.43;3.60;;;;;;;;;;5024935;28;20068;-61
2020/12/28 03:33:23;;;;;;;6.13;3.00;;;;;;;;;;5029567;28;20044;-60
2020/12/28 03:35:59;;;;;;;8.23;2.95;;;;;;;;;;5021977;28;20062;-60
2020/12/28 03:38:25;;;;;;;6.50;2.95;;;;;;;;;;5003878;28;20061;-60
2020/12/28 03:40:51;;;;;;;7.28;3.38;;;;;;;;;;5022402;28;20037;-61
2020/12/28 03:43:17;;;;;;;6.60;3.42;;;;;;;;;;5031478;28;20037;-60
2020/12/28 03:45:43;;;;;;;6.88;3.22;;;;;;;;;;5022511;28;20056;-61
2020/12/28 03:48:10;;;;;;;8.93;3.45;;;;;;;;;;5020723;28;20052;-61
2020/12/28 03:50:36;;;;;;;5.28;2.55;;;;;;;;;;5043111;28;20041;-61
2020/12/28 03:53:02;;;;;;;7.65;2.55;;;;;;;;;;5039653;28;20086;-60
2020/12/28 03:55:29;;;;;;;8.48;3.03;;;;;;;;;;5039712;28;20068;-60
2020/12/28 03:57:55;;;;;;;6.57;2.78;;;;;;;;;;5025230;28;20032;-61
2020/12/28 04:00:21;;;;;;;8.30;3.15;;;;;;;;;;5022808;28;20049;-60
2020/12/28 04:02:47;;;;;;;8.25;2.60;;;;;;;;;;5038566;28;20056;-61
2020/12/28 04:05:15;;;;;;;6.57;2.72;;;;;;;;;;5023553;28;20038;-61
2020/12/28 04:07:41;;;;;;;9.85;4.32;;;;;;;;;;5003905;28;20054;-60
2020/12/28 04:10:07;;;;;;;7.18;3.20;;;;;;;;;;5018993;28;20125;-60
2020/12/28 04:12:33;;;;;;;7.18;3.55;;;;;;;;;;5005696;28;20053;-61
2020/12/28 04:14:59;;;;;;;9.90;3.55;;;;;;;;;;5002459;28;20096;-61
2020/12/28 04:17:25;;;;;;;10.68;4.10;;;;;;;;;;5004937;28;20118;-61
2020/12/28 04:19:51;;;;;;;7.97;3.42;;;;;;;;;;5001709;28;20077;-60
2020/12/28 04:22:18;;;;;;;7.80;3.00;;;;;;;;;;5006433;28;20085;-60
2020/12/28 04:24:44;;;;;;;7.05;2.85;;;;;;;;;;5002461;28;20053;-61
2020/12/28 04:27:10;;;;;;;7.68;3.22;;;;;;;;;;5003595;28;20115;-61
2020/12/28 04:29:36;;;;;;;12.45;3.58;;;;;;;;;;5003467;28;20049;-61
2020/12/28 04:32:02;;;;;;;7.18;2.90;;;;;;;;;;5006341;28;20041;-60
2020/12/28 04:34:28;;;;;;;10.23;3.15;;;;;;;;;;5006408;28;20044;-61
2020/12/28 04:36:54;;;;;;;6.10;2.45;;;;;;;;;;5001788;28;20056;-60
2020/12/28 04:39:21;;;;;;;6.93;2.83;;;;;;;;;;5003826;28;20045;-60
2020/12/28 04:41:47;;;;;;;6.95;2.90;;;;;;;;;;5002376;28;20068;-60
2020/12/28 04:44:14;;;;;;;10.65;3.70;;;;;;;;;;5005219;28;20127;-61
2020/12/28 04:46:40;;;;;;;7.60;3.38;;;;;;;;;;5002081;28;20045;-61
2020/12/28 04:49:07;;;;;;;8.23;3.03;;;;;;;;;;5004644;28;20045;-61
2020/12/28 04:51:32;;;;;;;7.32;3.15;;;;;;;;;;4992475;28;20618;-61
2020/12/28 04:53:59;;;;;;;6.00;2.80;;;;;;;;;;5006409;28;20042;-61
2020/12/28 04:56:26;;;;;;;5.60;2.72;;;;;;;;;;5001430;28;20033;-60
2020/12/28 04:58:52;;;;;;;7.25;3.10;;;;;;;;;;5006140;28;20034;-60
2020/12/28 05:01:18;;;;;;;7.32;2.58;;;;;;;;;;5007459;28;20044;-61
2020/12/28 05:03:44;;;;;;;10.18;2.78;;;;;;;;;;5039261;28;20049;-60
2020/12/28 05:06:10;;;;;;;10.48;2.90;;;;;;;;;;5020413;28;20046;-60
2020/12/28 05:08:42;;;;;;;5.70;2.67;;;;;;;;;;5024038;28;20112;-61
2020/12/28 05:11:08;;;;;;;6.10;2.72;;;;;;;;;;5018329;28;20034;-61
2020/12/28 05:13:35;;;;;;;7.10;2.83;;;;;;;;;;5001946;28;20038;-61
2020/12/28 05:16:02;;;;;;;6.95;2.78;;;;;;;;;;5002361;28;20053;-60
2020/12/28 05:18:28;;;;;;;6.45;2.75;;;;;;;;;;5033318;28;20139;-60
2020/12/28 05:20:54;;;;;;;7.45;2.67;;;;;;;;;;5021917;28;20041;-60
2020/12/28 05:23:21;;;;;;;10.00;3.20;;;;;;;;;;5001829;28;20039;-60
2020/12/28 05:25:48;;;;;;;8.02;2.92;;;;;;;;;;5001339;28;20030;-60
2020/12/28 05:28:14;;;;;;;7.53;2.60;;;;;;;;;;4996273;28;20045;-61
2020/12/28 05:30:43;;;;;;;4.47;2.22;;;;;;;;;;5001691;28;20123;-60
2020/12/28 05:33:10;;;;;;;8.30;2.58;;;;;;;;;;5000247;28;20042;-61
2020/12/28 05:35:37;;;;;;;7.38;2.67;;;;;;;;;;5002262;28;20038;-60
2020/12/28 05:38:03;;;;;;;6.90;2.70;;;;;;;;;;4997384;28;20034;-61
2020/12/28 05:40:30;;;;;;;5.65;2.80;;;;;;;;;;5000121;28;20070;-60
2020/12/28 05:42:57;;;;;;;8.00;3.40;;;;;;;;;;5013482;28;20079;-60
2020/12/28 05:45:23;;;;;;;6.05;2.67;;;;;;;;;;5037252;28;20160;-60
2020/12/28 05:47:51;;;;;;;11.68;3.05;;;;;;;;;;5032297;28;20097;-61
2020/12/28 05:50:19;;;;;;;7.93;3.38;;;;;;;;;;5020573;28;20042;-60
2020/12/28 05:52:47;;;;;;;9.63;2.90;;;;;;;;;;5016036;28;20038;-61
2020/12/28 05:55:16;;;;;;;8.95;3.35;;;;;;;;;;5001808;28;20049;-60
2020/12/28 05:57:43;;;;;;;7.50;3.28;;;;;;;;;;4995233;28;20050;-60
2020/12/28 06:00:09;;;;;;;7.72;3.17;;;;;;;;;;5014898;28;20045;-60
2020/12/28 06:02:38;;;;;;;6.30;3.05;;;;;;;;;;5023240;28;20068;-60
2020/12/28 06:05:07;;;;;;;7.32;2.90;;;;;;;;;;5002324;28;20050;-61
2020/12/28 06:07:33;;;;;;;5.03;2.38;;;;;;;;;;5003438;28;20053;-60
2020/12/28 06:10:00;;;;;;;6.57;2.53;;;;;;;;;;5012881;28;20053;-60
2020/12/28 06:12:26;;;;;;;8.10;2.50;;;;;;;;;;5039701;28;20056;-61
2020/12/28 06:14:53;;;;;;;9.43;2.55;;;;;;;;;;5009023;28;20065;-60
2020/12/28 06:17:19;;;;;;;6.32;2.70;;;;;;;;;;5002376;28;20080;-61
2020/12/28 06:19:48;;;;;;;8.23;2.63;;;;;;;;;;5000057;28;20124;-60
2020/12/28 06:22:20;;;;;;;7.30;2.70;;;;;;;;;;5003561;28;20042;-60
2020/12/28 06:24:57;;;;;;;7.05;2.30;;;;;;;;;;5001152;28;20046;-60
2020/12/28 06:27:27;;;;;;;5.82;2.53;;;;;;;;;;5003634;28;20048;-60
2020/12/28 06:29:53;;;;;;;5.50;2.30;;;;;;;;;;5017728;28;20038;-60
2020/12/28 06:32:19;;;;;;;8.30;2.28;;;;;;;;;;5005077;28;20105;-60
2020/12/28 06:34:46;;;;;;;9.57;2.63;;;;;;;;;;5004920;28;20506;-60
2020/12/28 06:37:13;;;;;;;7.25;2.40;;;;;;;;;;5022284;28;20049;-61
2020/12/28 06:39:41;;;;;;;6.45;2.63;;;;;;;;;;5017902;28;20042;-61
2020/12/28 06:42:08;;;;;;;8.45;2.78;;;;;;;;;;5021696;28;20034;-60
2020/12/28 06:44:34;;;;;;;8.68;2.63;;;;;;;;;;5023312;28;20070;-60
2020/12/28 06:47:00;;;;;;;7.70;2.92;;;;;;;;;;5000624;28;20026;-60
2020/12/28 06:49:27;;;;;;;6.63;2.83;;;;;;;;;;5003093;28;20049;-61
2020/12/28 06:51:53;;;;;;;5.30;2.42;;;;;;;;;;4999409;28;20042;-60
2020/12/28 06:54:21;;;;;;;5.65;2.47;;;;;;;;;;5003750;28;20046;-60
2020/12/28 06:56:48;;;;;;;8.80;2.40;;;;;;;;;;4999703;28;20044;-61
2020/12/28 06:59:14;;;;;;;8.02;2.67;;;;;;;;;;5001236;28;20034;-60
2020/12/28 07:01:44;;;;;;;8.95;2.78;;;;;;;;;;5005400;28;20106;-61
2020/12/28 07:04:10;;;;;;;8.90;3.00;;;;;;;;;;4985771;28;20038;-60
2020/12/28 07:06:36;;;;;;;8.60;2.50;;;;;;;;;;4974552;28;20064;-60
2020/12/28 07:09:05;;;;;;;7.22;2.58;;;;;;;;;;4986537;28;20088;-60
2020/12/28 07:11:31;;;;;;;10.18;3.17;;;;;;;;;;4983736;28;20046;-60
2020/12/28 07:14:02;;;;;;;6.07;2.83;;;;;;;;;;4997992;28;20034;-60
2020/12/28 07:16:28;;;;;;;7.90;2.58;;;;;;;;;;4995249;28;20093;-61
2020/12/28 07:19:00;;;;;;;5.57;2.28;;;;;;;;;;4999955;28;20049;-60
2020/12/28 07:21:26;;;;;;;5.97;2.75;;;;;;;;;;5014550;28;20045;-60
2020/12/28 07:23:52;;;;;;;6.53;2.65;;;;;;;;;;4999730;28;20050;-60
2020/12/28 07:26:19;;;;;;;5.00;2.42;;;;;;;;;;5000596;28;20086;-60
2020/12/28 07:28:46;;;;;;;6.55;2.40;;;;;;;;;;5016488;28;20053;-60
2020/12/28 07:31:13;;;;;;;6.55;2.50;;;;;;;;;;4999904;28;20102;-60
2020/12/28 07:33:44;;;;;;;6.80;2.83;;;;;;;;;;4994295;28;20066;-60
2020/12/28 07:36:12;;;;;;;9.15;2.63;;;;;;;;;;4987852;28;20045;-61
2020/12/28 07:38:38;;;;;;;5.30;2.40;;;;;;;;;;4982610;28;20058;-61
2020/12/28 07:41:04;;;;;;;5.07;2.42;;;;;;;;;;5002421;28;20468;-60
2020/12/28 07:43:30;;;;;;;4.10;1.98;;;;;;;;;;4989869;28;20158;-60
2020/12/28 07:46:06;;;;;;;4.50;2.00;;;;;;;;;;4986718;28;20034;-60
2020/12/28 07:48:34;;;;;;;6.90;2.20;;;;;;;;;;4983112;28;20088;-60
2020/12/28 07:51:00;;;;;;;4.75;1.73;;;;;;;;;;4977222;28;20037;-61
2020/12/28 07:53:38;;;;;;;4.38;1.75;;;;;;;;;;4975238;28;20402;-60
2020/12/28 07:56:09;;;;;;;4.47;1.80;;;;;;;;;;4978504;28;20057;-60
2020/12/28 07:58:40;;;;;;;3.40;1.83;;;;;;;;;;4984905;28;20106;-60
2020/12/28 08:01:11;;;;;;;4.10;1.80;;;;;;;;;;5003930;28;20108;-61
2020/12/28 08:03:40;;;;;;;5.32;2.03;;;;;;;;;;5008462;28;20052;-60
2020/12/28 08:06:09;;;;;;;7.07;1.75;;;;;;;;;;5013197;28;20049;-60
2020/12/28 08:08:35;;;;;;;6.60;1.83;;;;;;;;;;5016339;28;20044;-60
2020/12/28 08:11:02;;;;;;;4.07;1.50;;;;;;;;;;5022920;28;20045;-60
2020/12/28 08:13:28;;;;;;;5.47;1.83;;;;;;;;;;5019024;28;20657;-60
2020/12/28 08:16:08;;;;;;;3.40;1.58;;;;;;;;;;5023826;28;20044;-61
2020/12/28 08:18:44;;;;;;;4.60;1.65;;;;;;;;;;5016860;28;20045;-60
2020/12/28 08:21:10;;;;;;;3.42;1.40;;;;;;;;;;5035131;28;20037;-60
2020/12/28 08:23:36;;;;;;;2.92;1.45;;;;;;;;;;5017454;28;20052;-60
2020/12/28 08:26:03;;;;;;;2.85;1.50;;;;;;;;;;5002413;28;20027;-60
2020/12/28 08:28:29;;;;;;;6.53;1.42;;;;;;;;;;5000117;28;20042;-60
2020/12/28 08:30:57;;;;;;;4.20;1.80;;;;;;;;;;5015826;28;20122;-60
2020/12/28 08:33:23;;;;;;;1.70;1.13;;;;;;;;;;5022431;28;20034;-60
2020/12/28 08:35:52;;;;;;;4.15;1.60;;;;;;;;;;5003396;28;20049;-60
2020/12/28 08:38:18;;;;;;;5.50;1.67;;;;;;;;;;5000059;28;20046;-60
2020/12/28 08:40:53;;;;;;;3.25;1.33;;;;;;;;;;4999373;28;20050;-60
2020/12/28 08:43:19;;;;;;;3.67;1.33;;;;;;;;;;5018148;28;20041;-61
2020/12/28 08:45:45;;;;;;;3.80;1.60;;;;;;;;;;5006184;28;20046;-60
2020/12/28 08:48:11;;;;;;;7.15;1.63;;;;;;;;;;5014432;28;20045;-61
2020/12/28 08:50:37;;;;;;;7.90;1.40;;;;;;;;;;5011386;28;20047;-60
2020/12/28 08:53:04;;;;;;;4.80;1.67;;;;;;;;;;4993708;28;20075;-60
2020/12/28 08:55:31;;;;;;;3.28;1.40;;;;;;;;;;4998123;28;20038;-60
2020/12/28 08:57:59;;;;;;;3.17;1.65;;;;;;;;;;5003278;28;20117;-61
2020/12/28 09:00:26;;;;;;;5.68;1.55;;;;;;;;;;4997463;28;20038;-60
2020/12/28 09:02:54;;;;;;;2.67;1.42;;;;;;;;;;5015189;28;20074;-61
2020/12/28 09:05:21;;;;;;;3.30;1.17;;;;;;;;;;5016439;28;20034;-60
2020/12/28 09:07:47;;;;;;;3.97;1.70;;;;;;;;;;4999048;28;20141;-60
2020/12/28 09:10:15;;;;;;;5.38;1.55;;;;;;;;;;5000335;28;20050;-60
2020/12/28 09:12:41;;;;;;;3.97;1.70;;;;;;;;;;4997647;28;20046;-60
2020/12/28 09:15:08;;;;;;;6.03;1.50;;;;;;;;;;5001951;28;20042;-60
2020/12/28 09:17:34;;;;;;;3.70;1.42;;;;;;;;;;4997894;28;20056;-60
2020/12/28 09:20:00;;;;;;;4.05;1.35;;;;;;;;;;5001387;28;20041;-60
2020/12/28 09:22:26;;;;;;;2.55;0.98;;;;;;;;;;4999957;28;20039;-60
2020/12/28 09:24:54;;;;;;;8.18;1.40;;;;;;;;;;5003929;28;20051;-60
2020/12/28 09:27:21;;;;;;;5.85;1.48;;;;;;;;;;5008528;28;20045;-60
2020/12/28 09:29:47;;;;;;;5.18;1.60;;;;;;;;;;5020948;28;20082;-61
2020/12/28 09:32:13;;;;;;;3.72;1.40;;;;;;;;;;5020475;28;20052;-60
2020/12/28 09:34:39;;;;;;;4.72;1.80;;;;;;;;;;5024520;28;20037;-60
2020/12/28 09:37:06;;;;;;;4.60;1.50;;;;;;;;;;5020238;28;20053;-61
2020/12/28 09:39:32;;;;;;;3.95;1.58;;;;;;;;;;5022354;28;20050;-60
2020/12/28 09:41:59;;;;;;;4.70;1.45;;;;;;;;;;5017212;28;20041;-60
2020/12/28 09:44:26;;;;;;;3.58;1.50;;;;;;;;;;5023896;28;20045;-60
2020/12/28 09:46:53;;;;;;;7.95;1.52;;;;;;;;;;5020471;28;20050;-61
2020/12/28 09:49:20;;;;;;;3.92;1.50;;;;;;;;;;5024020;28;20041;-60
2020/12/28 09:51:46;;;;;;;2.55;1.40;;;;;;;;;;5021622;28;20106;-60
2020/12/28 09:54:12;;;;;;;7.63;1.77;;;;;;;;;;5003839;28;20047;-61
2020/12/28 09:56:38;;;;;;;4.00;1.67;;;;;;;;;;5020410;28;20049;-60
2020/12/28 09:59:04;;;;;;;12.77;3.42;;;;;;;;;;5003112;28;20038;-60
2020/12/28 10:01:31;;;;;;;7.82;1.95;;;;;;;;;;5005314;28;20124;-61
2020/12/28 10:03:57;;;;;;;3.45;1.52;;;;;;;;;;4998892;28;20042;-60
2020/12/28 10:06:34;;;;;;;4.18;1.45;;;;;;;;;;5004127;28;20049;-60
2020/12/28 10:09:00;;;;;;;5.35;1.65;;;;;;;;;;4999576;28;20573;-61
2020/12/28 10:11:26;;;;;;;4.80;1.40;;;;;;;;;;5003750;28;20062;-60
2020/12/28 10:13:52;;;;;;;3.92;1.48;;;;;;;;;;5009623;28;20048;-60
2020/12/28 10:16:22;;;;;;;3.92;1.25;;;;;;;;;;5023328;28;20600;-60
2020/12/28 10:18:49;;;;;;;2.33;1.27;;;;;;;;;;5014952;28;20037;-60
2020/12/28 10:21:15;;;;;;;2.53;1.30;;;;;;;;;;5003608;28;20054;-60
2020/12/28 10:23:41;;;;;;;3.90;1.30;;;;;;;;;;5004241;28;20041;-60
2020/12/28 10:26:13;;;;;;;5.22;1.55;;;;;;;;;;5039032;28;20040;-60
2020/12/28 10:28:39;;;;;;;3.58;1.48;;;;;;;;;;5018397;28;20044;-60
2020/12/28 10:31:07;;;;;;;11.75;1.70;;;;;;;;;;5039293;28;20085;-60
2020/12/28 10:33:37;;;;;;;2.53;1.10;;;;;;;;;;5039010;28;20042;-60
2020/12/28 10:36:07;;;;;;;2.40;1.10;;;;;;;;;;5039460;28;20368;-60
2020/12/28 10:38:33;;;;;;;3.75;1.60;;;;;;;;;;5015889;28;20026;-60
2020/12/28 10:40:59;;;;;;;4.65;1.40;;;;;;;;;;5000277;28;20042;-60
2020/12/28 10:43:25;;;;;;;3.40;1.23;;;;;;;;;;5022203;28;20053;-60
2020/12/28 10:45:51;;;;;;;10.75;1.50;;;;;;;;;;5018126;28;20048;-60
2020/12/28 10:48:17;;;;;;;2.95;1.25;;;;;;;;;;5025051;28;20053;-60
2020/12/28 10:50:44;;;;;;;2.08;0.90;;;;;;;;;;5009362;28;20108;-60
2020/12/28 10:53:11;;;;;;;3.05;1.05;;;;;;;;;;5003640;28;20045;-60
2020/12/28 10:55:38;;;;;;;6.63;1.30;;;;;;;;;;5000294;28;20045;-60
2020/12/28 10:58:04;;;;;;;6.13;1.23;;;;;;;;;;5001766;28;20046;-60
2020/12/28 11:00:32;;;;;;;4.40;1.10;;;;;;;;;;5000469;28;20048;-60
2020/12/28 11:02:58;;;;;;;2.17;1.00;;;;;;;;;;5029942;28;20126;-60
2020/12/28 11:05:24;;;;;;;3.55;1.50;;;;;;;;;;5032662;28;20061;-61
2020/12/28 11:07:50;;;;;;;3.90;1.08;;;;;;;;;;5004364;28;20037;-60
2020/12/28 11:10:17;;;;;;;3.85;1.30;;;;;;;;;;5001804;28;20096;-60
2020/12/28 11:12:43;;;;;;;3.53;1.00;;;;;;;;;;5020202;28;20483;-60
2020/12/28 11:15:09;;;;;;;5.65;1.25;;;;;;;;;;5004341;28;20066;-60
2020/12/28 11:17:36;;;;;;;3.63;1.40;;;;;;;;;;5016969;28;20449;-60
2020/12/28 11:20:02;;;;;;;7.07;1.38;;;;;;;;;;5004981;28;20045;-60
2020/12/28 11:22:28;;;;;;;5.13;1.35;;;;;;;;;;5000472;28;20044;-60
2020/12/28 11:24:54;;;;;;;4.18;1.08;;;;;;;;;;5023842;28;20045;-60
2020/12/28 11:27:21;;;;;;;2.78;1.00;;;;;;;;;;5000706;28;20053;-60
2020/12/28 11:29:47;;;;;;;3.53;1.08;;;;;;;;;;5004824;28;20044;-61
2020/12/28 11:32:15;;;;;;;2.60;1.02;;;;;;;;;;5002474;28;20068;-60
2020/12/28 11:34:42;;;;;;;3.88;1.38;;;;;;;;;;5005284;28;20041;-60
2020/12/28 11:37:08;;;;;;;2.90;1.20;;;;;;;;;;5002468;28;20042;-60
2020/12/28 11:39:34;;;;;;;10.15;1.00;;;;;;;;;;5022085;28;20048;-60
2020/12/28 11:42:01;;;;;;;5.47;1.40;;;;;;;;;;5017598;28;20056;-60
2020/12/28 11:44:29;;;;;;;3.47;1.10;;;;;;;;;;5006852;28;20057;-60
2020/12/28 11:46:56;;;;;;;3.00;1.10;;;;;;;;;;5002702;28;20034;-60
2020/12/28 11:49:22;;;;;;;6.22;1.20;;;;;;;;;;5006129;28;20049;-60
2020/12/28 11:51:51;;;;;;;3.33;1.30;;;;;;;;;;5002050;28;20041;-60
2020/12/28 11:54:17;;;;;;;5.72;1.10;;;;;;;;;;5003629;28;20034;-60
2020/12/28 11:56:43;;;;;;;6.97;1.00;;;;;;;;;;5006025;28;20053;-60
2020/12/28 11:59:09;;;;;;;4.13;1.35;;;;;;;;;;5017997;28;20169;-60
2020/12/28 12:01:36;;;;;;;3.70;1.15;;;;;;;;;;5010232;28;20037;-60
2020/12/28 12:04:02;;;;;;;6.18;1.35;;;;;;;;;;5020105;28;20057;-61
2020/12/28 12:06:28;;;;;;;1.75;0.88;;;;;;;;;;5005217;28;20042;-61
2020/12/28 12:09:13;;;;;;;5.65;1.20;;;;;;;;;;5018103;28;20494;-60
2020/12/28 12:11:42;;;;;;;3.25;1.40;;;;;;;;;;5004550;28;20038;-60
2020/12/28 12:14:08;;;;;;;;;;;;;;;;;;5020484;28;20038;-60
2020/12/28 12:16:34;;;;;;;4.93;1.02;;;;;;;;;;5023630;28;19920;-60
2020/12/28 12:19:01;;;;;;;2.85;1.38;;;;;;;;;;5004988;28;20115;-60
2020/12/28 12:21:27;;;;;;;4.43;1.27;;;;;;;;;;5005726;28;20065;-60
2020/12/28 12:23:53;;;;;;;2.78;1.15;;;;;;;;;;5019637;28;20103;-60
2020/12/28 12:26:20;;;;;;;4.68;0.88;;;;;;;;;;5005719;28;20053;-60
2020/12/28 12:28:46;;;;;;;3.25;1.15;;;;;;;;;;5006219;28;20045;-60
2020/12/28 12:31:13;;;;;;;4.63;1.10;;;;;;;;;;5042060;28;20052;-60
2020/12/28 12:33:39;;;;;;;3.90;1.23;;;;;;;;;;5037992;28;20133;-60
2020/12/28 12:36:06;;;;;;;5.50;1.33;;;;;;;;;;5039989;28;20124;-60
2020/12/28 12:38:33;;;;;;;2.83;1.10;;;;;;;;;;5038075;28;20056;-60
2020/12/28 12:41:00;;;;;;;2.03;1.08;;;;;;;;;;5002944;28;20086;-61
2020/12/28 12:43:26;;;;;;;2.75;0.93;;;;;;;;;;5001353;28;20063;-60
2020/12/28 12:45:52;;;;;;;4.88;0.90;;;;;;;;;;5000995;28;20046;-60
2020/12/28 12:48:18;;;;;;;4.15;1.30;;;;;;;;;;5019662;28;20078;-60
2020/12/28 12:50:44;;;;;;;2.95;1.05;;;;;;;;;;5019568;28;20142;-60
2020/12/28 12:53:11;;;;;;;2.90;1.00;;;;;;;;;;5004710;28;20045;-60
2020/12/28 12:55:39;;;;;;;2.90;1.20;;;;;;;;;;5013851;28;20152;-60
2020/12/28 12:58:05;;;;;;;3.70;1.17;;;;;;;;;;5040331;28;20047;-60
2020/12/28 13:00:31;;;;;;;4.78;1.30;;;;;;;;;;5035782;28;20041;-60
2020/12/28 13:02:57;;;;;;;2.50;1.25;;;;;;;;;;5037650;28;20045;-61
2020/12/28 13:05:25;;;;;;;4.75;1.25;;;;;;;;;;5010916;28;20085;-60
2020/12/28 13:07:51;;;;;;;3.92;1.50;;;;;;;;;;5003737;28;20116;-60
2020/12/28 13:10:18;;;;;;;2.40;1.02;;;;;;;;;;5005740;28;20046;-61
2020/12/28 13:12:44;;;;;;;2.15;1.02;;;;;;;;;;5040154;28;20127;-60
2020/12/28 13:15:11;;;;;;;6.57;1.13;;;;;;;;;;5036644;28;20050;-60
2020/12/28 13:17:37;;;;;;;3.53;1.13;;;;;;;;;;5022890;28;20128;-61
2020/12/28 13:20:04;;;;;;;2.20;0.93;;;;;;;;;;5023047;28;20057;-60
2020/12/28 13:22:30;;;;;;;2.55;0.95;;;;;;;;;;5023190;28;20061;-60
2020/12/28 13:24:58;;;;;;;3.88;1.17;;;;;;;;;;5023776;28;20056;-60
2020/12/28 13:27:25;;;;;;;3.05;0.93;;;;;;;;;;5019966;28;20061;-60
2020/12/28 13:29:51;;;;;;;2.45;0.70;;;;;;;;;;5008198;28;20042;-60
2020/12/28 13:32:17;;;;;;;2.15;0.88;;;;;;;;;;5012178;28;20086;-60
2020/12/28 13:34:43;;;;;;;2.03;0.88;;;;;;;;;;5012615;28;20118;-60
2020/12/28 13:37:10;;;;;;;1.73;0.90;;;;;;;;;;5010776;28;20480;-60
2020/12/28 13:39:37;;;;;;;2.97;0.98;;;;;;;;;;5020339;28;20042;-60
2020/12/28 13:42:03;;;;;;;1.25;0.70;;;;;;;;;;5015747;28;20027;-60
2020/12/28 13:44:31;;;;;;;3.22;1.17;;;;;;;;;;5020295;28;20082;-61
2020/12/28 13:46:57;;;;;;;3.38;1.10;;;;;;;;;;5014422;28;20034;-61
2020/12/28 13:49:23;;;;;;;2.97;0.98;;;;;;;;;;4996610;28;20042;-60
2020/12/28 13:51:49;;;;;;;1.90;0.88;;;;;;;;;;5017095;28;20049;-60
2020/12/28 13:54:16;;;;;;;2.05;0.77;;;;;;;;;;5013980;28;20045;-60
2020/12/28 13:56:42;;;;;;;2.58;0.93;;;;;;;;;;5017211;28;20074;-60
2020/12/28 13:59:08;;;;;;;1.92;0.93;;;;;;;;;;5023361;28;20119;-60
2020/12/28 14:01:35;;;;;;;2.40;0.88;;;;;;;;;;5024637;28;20046;-60
2020/12/28 14:04:01;;;;;;;2.08;0.90;;;;;;;;;;5019008;28;20029;-61
2020/12/28 14:06:27;;;;;;;3.00;1.05;;;;;;;;;;5037841;28;20048;-60
2020/12/28 14:08:53;;;;;;;4.85;1.25;;;;;;;;;;5001464;28;20038;-60
2020/12/28 14:11:20;;;;;;;6.28;1.30;;;;;;;;;;5003523;28;20042;-60
2020/12/28 14:13:47;;;;;;;6.25;1.33;;;;;;;;;;5017311;28;20070;-60
2020/12/28 14:16:14;;;;;;;5.22;1.10;;;;;;;;;;5002666;28;20176;-60
2020/12/28 14:18:41;;;;;;;5.88;1.10;;;;;;;;;;4999581;28;20034;-60
2020/12/28 14:21:07;;;;;;;6.60;1.33;;;;;;;;;;5000676;28;20042;-60
2020/12/28 14:23:33;;;;;;;2.95;1.10;;;;;;;;;;5004233;28;20564;-61
2020/12/28 14:26:01;;;;;;;2.95;1.05;;;;;;;;;;5022098;28;20078;-61
2020/12/28 14:28:27;;;;;;;2.05;0.90;;;;;;;;;;5016835;28;20120;-60
2020/12/28 14:30:53;;;;;;;3.70;1.33;;;;;;;;;;5024828;28;20048;-60
2020/12/28 14:33:20;;;;;;;3.05;1.00;;;;;;;;;;5017860;28;20489;-60
2020/12/28 14:35:47;;;;;;;2.90;0.98;;;;;;;;;;5021901;28;20034;-60
2020/12/28 14:38:14;;;;;;;2.45;1.13;;;;;;;;;;5018371;28;20123;-60
2020/12/28 14:40:40;;;;;;;7.00;1.35;;;;;;;;;;5025009;28;20042;-60